sensor_id;sensor_type;location;lat;lon;timestamp;P1;durP1;ratioP1;P2;durP2;ratioP2
60016;SDS011;45869;52.698;6.210;2023-08-31T00:02:02;8.63;;;3.08;;
60016;SDS011;45869;52.698;6.210;2023-08-31T00:04:29;8.10;;;3.28;;
60016;SDS011;45869;52.698;6.210;2023-08-31T00:06:55;7.13;;;2.92;;
60016;SDS011;45869;52.698;6.210;2023-08-31T00:09:22;8.10;;;2.90;;
60016;SDS011;45869;52.698;6.210;2023-08-31T00:11:49;5.75;;;2.50;;
60016;SDS011;45869;52.698;6.210;2023-08-31T00:14:15;5.43;;;2.90;;
60016;SDS011;45869;52.698;6.210;2023-08-31T00:16:41;7.72;;;2.72;;
60016;SDS011;45869;52.698;6.210;2023-08-31T00:19:07;7.45;;;2.60;;
60016;SDS011;45869;52.698;6.210;2023-08-31T00:21:33;6.13;;;2.55;;
60016;SDS011;45869;52.698;6.210;2023-08-31T00:23:59;5.60;;;1.88;;
60016;SDS011;45869;52.698;6.210;2023-08-31T00:26:25;5.28;;;2.00;;
60016;SDS011;45869;52.698;6.210;2023-08-31T00:28:52;6.40;;;1.50;;
60016;SDS011;45869;52.698;6.210;2023-08-31T00:31:18;4.38;;;1.40;;
60016;SDS011;45869;52.698;6.210;2023-08-31T00:33:45;3.70;;;1.15;;
60016;SDS011;45869;52.698;6.210;2023-08-31T00:36:11;4.82;;;1.67;;
60016;SDS011;45869;52.698;6.210;2023-08-31T00:38:38;3.80;;;1.10;;
60016;SDS011;45869;52.698;6.210;2023-08-31T00:41:04;2.63;;;0.95;;
60016;SDS011;45869;52.698;6.210;2023-08-31T00:43:30;3.78;;;0.90;;
60016;SDS011;45869;52.698;6.210;2023-08-31T00:45:56;2.60;;;0.70;;
60016;SDS011;45869;52.698;6.210;2023-08-31T00:48:23;2.30;;;0.50;;
60016;SDS011;45869;52.698;6.210;2023-08-31T00:50:50;1.42;;;0.43;;
60016;SDS011;45869;52.698;6.210;2023-08-31T00:53:17;3.25;;;0.63;;
60016;SDS011;45869;52.698;6.210;2023-08-31T00:55:46;2.05;;;0.43;;
60016;SDS011;45869;52.698;6.210;2023-08-31T00:58:13;4.45;;;0.60;;
60016;SDS011;45869;52.698;6.210;2023-08-31T01:00:49;2.00;;;0.50;;
60016;SDS011;45869;52.698;6.210;2023-08-31T01:03:20;2.55;;;0.90;;
60016;SDS011;45869;52.698;6.210;2023-08-31T01:08:36;3.55;;;2.28;;
60016;SDS011;45869;52.698;6.210;2023-08-31T01:11:08;6.13;;;2.78;;
60016;SDS011;45869;52.698;6.210;2023-08-31T01:13:38;7.82;;;3.08;;
60016;SDS011;45869;52.698;6.210;2023-08-31T01:16:07;6.30;;;2.78;;
60016;SDS011;45869;52.698;6.210;2023-08-31T01:18:34;5.38;;;3.20;;
60016;SDS011;45869;52.698;6.210;2023-08-31T01:23:52;5.45;;;2.88;;
60016;SDS011;45869;52.698;6.210;2023-08-31T01:26:21;7.22;;;3.15;;
60016;SDS011;45869;52.698;6.210;2023-08-31T01:28:48;5.50;;;2.47;;
60016;SDS011;45869;52.698;6.210;2023-08-31T01:31:15;5.05;;;2.25;;
60016;SDS011;45869;52.698;6.210;2023-08-31T01:33:47;2.92;;;1.95;;
60016;SDS011;45869;52.698;6.210;2023-08-31T01:36:17;6.55;;;2.25;;
60016;SDS011;45869;52.698;6.210;2023-08-31T01:38:48;3.42;;;1.70;;
60016;SDS011;45869;52.698;6.210;2023-08-31T01:41:16;3.20;;;1.70;;
60016;SDS011;45869;52.698;6.210;2023-08-31T01:43:43;4.82;;;1.50;;
60016;SDS011;45869;52.698;6.210;2023-08-31T01:46:09;3.83;;;1.10;;
60016;SDS011;45869;52.698;6.210;2023-08-31T01:48:39;3.47;;;1.27;;
60016;SDS011;45869;52.698;6.210;2023-08-31T01:51:09;3.25;;;1.08;;
60016;SDS011;45869;52.698;6.210;2023-08-31T01:53:35;2.83;;;1.30;;
60016;SDS011;45869;52.698;6.210;2023-08-31T01:56:04;3.30;;;1.17;;
60016;SDS011;45869;52.698;6.210;2023-08-31T01:58:30;3.00;;;1.02;;
60016;SDS011;45869;52.698;6.210;2023-08-31T02:00:56;3.17;;;0.98;;
60016;SDS011;45869;52.698;6.210;2023-08-31T02:03:22;2.55;;;0.80;;
60016;SDS011;45869;52.698;6.210;2023-08-31T02:05:48;2.28;;;0.77;;
60016;SDS011;45869;52.698;6.210;2023-08-31T02:08:14;1.35;;;0.60;;
60016;SDS011;45869;52.698;6.210;2023-08-31T02:10:43;1.73;;;0.60;;
60016;SDS011;45869;52.698;6.210;2023-08-31T02:13:13;1.95;;;0.65;;
60016;SDS011;45869;52.698;6.210;2023-08-31T02:15:41;3.47;;;0.60;;
60016;SDS011;45869;52.698;6.210;2023-08-31T02:18:07;1.83;;;0.63;;
60016;SDS011;45869;52.698;6.210;2023-08-31T02:20:33;2.85;;;0.57;;
60016;SDS011;45869;52.698;6.210;2023-08-31T02:23:00;1.38;;;0.57;;
60016;SDS011;45869;52.698;6.210;2023-08-31T02:25:32;1.98;;;0.40;;
60016;SDS011;45869;52.698;6.210;2023-08-31T02:27:58;3.20;;;0.40;;
60016;SDS011;45869;52.698;6.210;2023-08-31T02:30:24;1.25;;;0.50;;
60016;SDS011;45869;52.698;6.210;2023-08-31T02:32:50;1.30;;;0.70;;
60016;SDS011;45869;52.698;6.210;2023-08-31T02:35:16;2.25;;;0.98;;
60016;SDS011;45869;52.698;6.210;2023-08-31T02:37:42;2.67;;;1.08;;
60016;SDS011;45869;52.698;6.210;2023-08-31T02:40:08;2.53;;;1.05;;
60016;SDS011;45869;52.698;6.210;2023-08-31T02:42:35;3.00;;;1.30;;
60016;SDS011;45869;52.698;6.210;2023-08-31T02:45:01;2.92;;;1.58;;
60016;SDS011;45869;52.698;6.210;2023-08-31T02:47:27;2.00;;;1.40;;
60016;SDS011;45869;52.698;6.210;2023-08-31T02:49:53;2.47;;;1.70;;
60016;SDS011;45869;52.698;6.210;2023-08-31T02:52:20;3.58;;;2.35;;
60016;SDS011;45869;52.698;6.210;2023-08-31T02:54:55;4.68;;;2.28;;
60016;SDS011;45869;52.698;6.210;2023-08-31T02:57:21;3.83;;;2.85;;
60016;SDS011;45869;52.698;6.210;2023-08-31T02:59:51;5.10;;;3.88;;
60016;SDS011;45869;52.698;6.210;2023-08-31T03:02:17;6.15;;;4.30;;
60016;SDS011;45869;52.698;6.210;2023-08-31T03:04:43;5.35;;;3.97;;
60016;SDS011;45869;52.698;6.210;2023-08-31T03:07:09;6.25;;;4.78;;
60016;SDS011;45869;52.698;6.210;2023-08-31T03:09:39;6.50;;;4.32;;
60016;SDS011;45869;52.698;6.210;2023-08-31T03:12:05;7.38;;;5.57;;
60016;SDS011;45869;52.698;6.210;2023-08-31T03:14:31;8.45;;;5.32;;
60016;SDS011;45869;52.698;6.210;2023-08-31T03:16:57;7.28;;;5.00;;
60016;SDS011;45869;52.698;6.210;2023-08-31T03:19:24;7.40;;;4.78;;
60016;SDS011;45869;52.698;6.210;2023-08-31T03:21:50;7.47;;;5.18;;
60016;SDS011;45869;52.698;6.210;2023-08-31T03:24:19;4.85;;;4.05;;
60016;SDS011;45869;52.698;6.210;2023-08-31T03:26:45;6.00;;;4.47;;
60016;SDS011;45869;52.698;6.210;2023-08-31T03:29:11;5.40;;;4.90;;
60016;SDS011;45869;52.698;6.210;2023-08-31T03:31:37;6.18;;;4.15;;
60016;SDS011;45869;52.698;6.210;2023-08-31T03:34:03;5.20;;;3.90;;
60016;SDS011;45869;52.698;6.210;2023-08-31T03:36:29;4.93;;;4.10;;
60016;SDS011;45869;52.698;6.210;2023-08-31T03:38:55;5.35;;;4.18;;
60016;SDS011;45869;52.698;6.210;2023-08-31T03:41:21;6.82;;;3.95;;
60016;SDS011;45869;52.698;6.210;2023-08-31T03:43:47;6.13;;;3.60;;
60016;SDS011;45869;52.698;6.210;2023-08-31T03:46:13;4.40;;;3.22;;
60016;SDS011;45869;52.698;6.210;2023-08-31T03:48:39;5.75;;;3.03;;
60016;SDS011;45869;52.698;6.210;2023-08-31T03:51:05;4.50;;;3.28;;
60016;SDS011;45869;52.698;6.210;2023-08-31T03:53:31;5.28;;;2.70;;
60016;SDS011;45869;52.698;6.210;2023-08-31T03:56:00;6.28;;;2.78;;
60016;SDS011;45869;52.698;6.210;2023-08-31T03:58:29;5.25;;;2.72;;
60016;SDS011;45869;52.698;6.210;2023-08-31T04:00:55;5.97;;;2.45;;
60016;SDS011;45869;52.698;6.210;2023-08-31T04:03:21;5.32;;;2.55;;
60016;SDS011;45869;52.698;6.210;2023-08-31T04:05:47;5.78;;;2.42;;
60016;SDS011;45869;52.698;6.210;2023-08-31T04:08:13;5.53;;;2.10;;
60016;SDS011;45869;52.698;6.210;2023-08-31T04:10:39;5.68;;;2.60;;
60016;SDS011;45869;52.698;6.210;2023-08-31T04:13:05;4.13;;;2.65;;
60016;SDS011;45869;52.698;6.210;2023-08-31T04:15:31;4.63;;;2.78;;
60016;SDS011;45869;52.698;6.210;2023-08-31T04:17:59;3.97;;;2.45;;
60016;SDS011;45869;52.698;6.210;2023-08-31T04:20:25;5.30;;;2.60;;
60016;SDS011;45869;52.698;6.210;2023-08-31T04:22:51;4.63;;;3.20;;
60016;SDS011;45869;52.698;6.210;2023-08-31T04:25:17;4.55;;;2.92;;
60016;SDS011;45869;52.698;6.210;2023-08-31T04:27:43;5.70;;;2.80;;
60016;SDS011;45869;52.698;6.210;2023-08-31T04:30:10;4.05;;;2.80;;
60016;SDS011;45869;52.698;6.210;2023-08-31T04:32:37;7.10;;;3.33;;
60016;SDS011;45869;52.698;6.210;2023-08-31T04:35:03;4.13;;;3.13;;
60016;SDS011;45869;52.698;6.210;2023-08-31T04:37:33;7.10;;;3.00;;
60016;SDS011;45869;52.698;6.210;2023-08-31T04:39:59;5.38;;;3.58;;
60016;SDS011;45869;52.698;6.210;2023-08-31T04:42:25;6.95;;;4.05;;
60016;SDS011;45869;52.698;6.210;2023-08-31T04:44:51;5.05;;;4.28;;
60016;SDS011;45869;52.698;6.210;2023-08-31T04:47:17;5.15;;;4.20;;
60016;SDS011;45869;52.698;6.210;2023-08-31T04:49:43;5.80;;;4.60;;
60016;SDS011;45869;52.698;6.210;2023-08-31T04:52:09;5.78;;;4.60;;
60016;SDS011;45869;52.698;6.210;2023-08-31T04:54:35;6.00;;;5.20;;
60016;SDS011;45869;52.698;6.210;2023-08-31T04:57:01;6.00;;;4.22;;
60016;SDS011;45869;52.698;6.210;2023-08-31T04:59:31;6.22;;;4.80;;
60016;SDS011;45869;52.698;6.210;2023-08-31T05:02:00;6.82;;;4.80;;
60016;SDS011;45869;52.698;6.210;2023-08-31T05:04:26;5.72;;;4.22;;
60016;SDS011;45869;52.698;6.210;2023-08-31T05:06:53;7.03;;;4.47;;
60016;SDS011;45869;52.698;6.210;2023-08-31T05:09:20;7.20;;;4.93;;
60016;SDS011;45869;52.698;6.210;2023-08-31T05:11:46;6.75;;;5.15;;
60016;SDS011;45869;52.698;6.210;2023-08-31T05:14:12;7.72;;;4.47;;
60016;SDS011;45869;52.698;6.210;2023-08-31T05:16:38;8.32;;;5.32;;
60016;SDS011;45869;52.698;6.210;2023-08-31T05:19:07;5.00;;;4.50;;
60016;SDS011;45869;52.698;6.210;2023-08-31T05:21:33;6.78;;;5.15;;
60016;SDS011;45869;52.698;6.210;2023-08-31T05:23:59;5.18;;;4.68;;
60016;SDS011;45869;52.698;6.210;2023-08-31T05:26:28;5.88;;;4.72;;
60016;SDS011;45869;52.698;6.210;2023-08-31T05:28:54;6.47;;;4.60;;
60016;SDS011;45869;52.698;6.210;2023-08-31T05:31:20;8.23;;;5.28;;
60016;SDS011;45869;52.698;6.210;2023-08-31T05:33:46;7.10;;;5.05;;
60016;SDS011;45869;52.698;6.210;2023-08-31T05:36:18;6.03;;;4.35;;
60016;SDS011;45869;52.698;6.210;2023-08-31T05:38:44;5.13;;;4.20;;
60016;SDS011;45869;52.698;6.210;2023-08-31T05:41:10;5.53;;;4.20;;
60016;SDS011;45869;52.698;6.210;2023-08-31T05:43:36;7.78;;;4.78;;
60016;SDS011;45869;52.698;6.210;2023-08-31T05:46:08;7.18;;;4.35;;
60016;SDS011;45869;52.698;6.210;2023-08-31T05:48:34;5.25;;;3.95;;
60016;SDS011;45869;52.698;6.210;2023-08-31T05:51:01;7.43;;;4.43;;
60016;SDS011;45869;52.698;6.210;2023-08-31T05:53:29;7.43;;;4.00;;
60016;SDS011;45869;52.698;6.210;2023-08-31T05:55:57;4.93;;;3.40;;
60016;SDS011;45869;52.698;6.210;2023-08-31T05:58:30;7.30;;;3.92;;
60016;SDS011;45869;52.698;6.210;2023-08-31T06:00:57;8.45;;;4.00;;
60016;SDS011;45869;52.698;6.210;2023-08-31T06:03:23;5.30;;;3.83;;
60016;SDS011;45869;52.698;6.210;2023-08-31T06:05:49;6.07;;;3.40;;
60016;SDS011;45869;52.698;6.210;2023-08-31T06:08:16;5.45;;;3.63;;
60016;SDS011;45869;52.698;6.210;2023-08-31T06:10:42;8.07;;;4.20;;
60016;SDS011;45869;52.698;6.210;2023-08-31T06:13:08;4.85;;;3.38;;
60016;SDS011;45869;52.698;6.210;2023-08-31T06:15:34;7.20;;;3.80;;
60016;SDS011;45869;52.698;6.210;2023-08-31T06:18:00;7.05;;;3.88;;
60016;SDS011;45869;52.698;6.210;2023-08-31T06:20:26;6.55;;;3.72;;
60016;SDS011;45869;52.698;6.210;2023-08-31T06:22:52;5.95;;;3.60;;
60016;SDS011;45869;52.698;6.210;2023-08-31T06:25:18;7.65;;;3.20;;
60016;SDS011;45869;52.698;6.210;2023-08-31T06:27:46;6.22;;;3.28;;
60016;SDS011;45869;52.698;6.210;2023-08-31T06:30:12;5.10;;;2.63;;
60016;SDS011;45869;52.698;6.210;2023-08-31T06:32:42;5.53;;;3.22;;
60016;SDS011;45869;52.698;6.210;2023-08-31T06:35:08;4.78;;;2.80;;
60016;SDS011;45869;52.698;6.210;2023-08-31T06:37:34;4.93;;;2.67;;
60016;SDS011;45869;52.698;6.210;2023-08-31T06:40:00;6.47;;;2.53;;
60016;SDS011;45869;52.698;6.210;2023-08-31T06:42:26;4.63;;;2.10;;
60016;SDS011;45869;52.698;6.210;2023-08-31T06:44:52;6.72;;;1.98;;
60016;SDS011;45869;52.698;6.210;2023-08-31T06:47:23;4.18;;;2.40;;
60016;SDS011;45869;52.698;6.210;2023-08-31T06:49:50;7.82;;;2.50;;
60016;SDS011;45869;52.698;6.210;2023-08-31T06:52:16;5.72;;;2.13;;
60016;SDS011;45869;52.698;6.210;2023-08-31T06:54:42;3.50;;;1.63;;
60016;SDS011;45869;52.698;6.210;2023-08-31T06:57:08;3.72;;;1.40;;
60016;SDS011;45869;52.698;6.210;2023-08-31T06:59:34;6.35;;;2.00;;
60016;SDS011;45869;52.698;6.210;2023-08-31T07:02:03;3.85;;;1.50;;
60016;SDS011;45869;52.698;6.210;2023-08-31T07:04:29;3.85;;;1.40;;
60016;SDS011;45869;52.698;6.210;2023-08-31T07:06:55;4.63;;;1.40;;
60016;SDS011;45869;52.698;6.210;2023-08-31T07:09:21;4.68;;;1.10;;
60016;SDS011;45869;52.698;6.210;2023-08-31T07:11:47;4.75;;;1.08;;
60016;SDS011;45869;52.698;6.210;2023-08-31T07:14:14;4.15;;;0.88;;
60016;SDS011;45869;52.698;6.210;2023-08-31T07:16:40;4.72;;;1.20;;
60016;SDS011;45869;52.698;6.210;2023-08-31T07:19:06;4.35;;;1.00;;
60016;SDS011;45869;52.698;6.210;2023-08-31T07:21:35;3.90;;;0.85;;
60016;SDS011;45869;52.698;6.210;2023-08-31T07:24:04;3.15;;;0.60;;
60016;SDS011;45869;52.698;6.210;2023-08-31T07:26:32;3.72;;;0.60;;
60016;SDS011;45869;52.698;6.210;2023-08-31T07:29:01;2.97;;;0.50;;
60016;SDS011;45869;52.698;6.210;2023-08-31T07:31:29;3.85;;;0.70;;
60016;SDS011;45869;52.698;6.210;2023-08-31T07:33:56;3.17;;;0.52;;
60016;SDS011;45869;52.698;6.210;2023-08-31T07:36:22;2.25;;;0.50;;
60016;SDS011;45869;52.698;6.210;2023-08-31T07:38:51;2.80;;;0.40;;
60016;SDS011;45869;52.698;6.210;2023-08-31T07:41:17;2.92;;;0.52;;
60016;SDS011;45869;52.698;6.210;2023-08-31T07:43:43;5.65;;;0.80;;
60016;SDS011;45869;52.698;6.210;2023-08-31T07:46:14;2.33;;;0.40;;
60016;SDS011;45869;52.698;6.210;2023-08-31T07:48:41;2.28;;;0.40;;
60016;SDS011;45869;52.698;6.210;2023-08-31T07:51:07;2.78;;;0.30;;
60016;SDS011;45869;52.698;6.210;2023-08-31T07:53:33;2.35;;;0.38;;
60016;SDS011;45869;52.698;6.210;2023-08-31T07:55:59;3.20;;;0.30;;
60016;SDS011;45869;52.698;6.210;2023-08-31T07:58:25;1.15;;;0.20;;
60016;SDS011;45869;52.698;6.210;2023-08-31T08:00:52;1.85;;;0.43;;
60016;SDS011;45869;52.698;6.210;2023-08-31T08:03:19;1.38;;;0.20;;
60016;SDS011;45869;52.698;6.210;2023-08-31T08:05:45;2.22;;;0.30;;
60016;SDS011;45869;52.698;6.210;2023-08-31T08:08:11;2.15;;;0.60;;
60016;SDS011;45869;52.698;6.210;2023-08-31T08:10:38;2.10;;;0.32;;
60016;SDS011;45869;52.698;6.210;2023-08-31T08:13:08;1.20;;;0.40;;
60016;SDS011;45869;52.698;6.210;2023-08-31T08:15:34;2.47;;;0.60;;
60016;SDS011;45869;52.698;6.210;2023-08-31T08:18:00;2.10;;;0.40;;
60016;SDS011;45869;52.698;6.210;2023-08-31T08:20:27;1.88;;;0.30;;
60016;SDS011;45869;52.698;6.210;2023-08-31T08:22:53;1.40;;;0.30;;
60016;SDS011;45869;52.698;6.210;2023-08-31T08:25:19;2.15;;;0.30;;
60016;SDS011;45869;52.698;6.210;2023-08-31T08:27:46;2.03;;;0.40;;
60016;SDS011;45869;52.698;6.210;2023-08-31T08:30:18;2.90;;;0.38;;
60016;SDS011;45869;52.698;6.210;2023-08-31T08:32:44;1.90;;;0.30;;
60016;SDS011;45869;52.698;6.210;2023-08-31T08:35:11;2.55;;;0.38;;
60016;SDS011;45869;52.698;6.210;2023-08-31T08:37:37;2.70;;;0.40;;
60016;SDS011;45869;52.698;6.210;2023-08-31T08:40:03;3.55;;;0.32;;
60016;SDS011;45869;52.698;6.210;2023-08-31T08:42:32;2.42;;;0.50;;
60016;SDS011;45869;52.698;6.210;2023-08-31T08:45:01;5.28;;;0.50;;
60016;SDS011;45869;52.698;6.210;2023-08-31T08:47:28;3.30;;;0.40;;
60016;SDS011;45869;52.698;6.210;2023-08-31T08:49:54;1.60;;;0.32;;
60016;SDS011;45869;52.698;6.210;2023-08-31T08:52:21;2.60;;;0.60;;
60016;SDS011;45869;52.698;6.210;2023-08-31T08:54:49;3.78;;;0.70;;
60016;SDS011;45869;52.698;6.210;2023-08-31T08:57:15;2.67;;;0.50;;
60016;SDS011;45869;52.698;6.210;2023-08-31T08:59:41;3.88;;;0.50;;
60016;SDS011;45869;52.698;6.210;2023-08-31T09:02:08;3.80;;;0.70;;
60016;SDS011;45869;52.698;6.210;2023-08-31T09:04:36;4.15;;;0.77;;
60016;SDS011;45869;52.698;6.210;2023-08-31T09:07:02;1.50;;;0.45;;
60016;SDS011;45869;52.698;6.210;2023-08-31T09:09:28;3.85;;;0.50;;
60016;SDS011;45869;52.698;6.210;2023-08-31T09:11:54;2.55;;;0.60;;
60016;SDS011;45869;52.698;6.210;2023-08-31T09:14:21;3.10;;;0.60;;
60016;SDS011;45869;52.698;6.210;2023-08-31T09:16:51;3.65;;;0.50;;
60016;SDS011;45869;52.698;6.210;2023-08-31T09:19:26;2.80;;;0.50;;
60016;SDS011;45869;52.698;6.210;2023-08-31T09:21:55;2.45;;;0.60;;
60016;SDS011;45869;52.698;6.210;2023-08-31T09:24:21;3.28;;;0.50;;
60016;SDS011;45869;52.698;6.210;2023-08-31T09:26:52;2.13;;;0.40;;
60016;SDS011;45869;52.698;6.210;2023-08-31T09:29:19;2.63;;;0.60;;
60016;SDS011;45869;52.698;6.210;2023-08-31T09:31:45;3.33;;;0.60;;
60016;SDS011;45869;52.698;6.210;2023-08-31T09:34:12;2.05;;;0.50;;
60016;SDS011;45869;52.698;6.210;2023-08-31T09:36:38;2.10;;;0.45;;
60016;SDS011;45869;52.698;6.210;2023-08-31T09:39:07;3.35;;;0.50;;
60016;SDS011;45869;52.698;6.210;2023-08-31T09:41:34;1.50;;;0.30;;
60016;SDS011;45869;52.698;6.210;2023-08-31T09:44:16;1.95;;;0.30;;
60016;SDS011;45869;52.698;6.210;2023-08-31T09:46:43;2.10;;;0.30;;
60016;SDS011;45869;52.698;6.210;2023-08-31T09:49:10;2.50;;;0.30;;
60016;SDS011;45869;52.698;6.210;2023-08-31T09:51:38;2.47;;;0.30;;
60016;SDS011;45869;52.698;6.210;2023-08-31T09:54:05;3.42;;;0.50;;
60016;SDS011;45869;52.698;6.210;2023-08-31T09:56:32;2.30;;;0.50;;
60016;SDS011;45869;52.698;6.210;2023-08-31T09:58:59;2.83;;;0.50;;
60016;SDS011;45869;52.698;6.210;2023-08-31T10:01:26;2.67;;;0.50;;
60016;SDS011;45869;52.698;6.210;2023-08-31T10:03:52;4.82;;;0.70;;
60016;SDS011;45869;52.698;6.210;2023-08-31T10:06:19;3.03;;;0.30;;
60016;SDS011;45869;52.698;6.210;2023-08-31T10:08:46;1.52;;;0.20;;
60016;SDS011;45869;52.698;6.210;2023-08-31T10:11:12;2.42;;;0.47;;
60016;SDS011;45869;52.698;6.210;2023-08-31T10:13:41;1.58;;;0.47;;
60016;SDS011;45869;52.698;6.210;2023-08-31T10:16:08;3.13;;;0.40;;
60016;SDS011;45869;52.698;6.210;2023-08-31T10:18:35;3.55;;;0.50;;
60016;SDS011;45869;52.698;6.210;2023-08-31T10:21:02;2.28;;;0.40;;
60016;SDS011;45869;52.698;6.210;2023-08-31T10:23:28;2.25;;;0.28;;
60016;SDS011;45869;52.698;6.210;2023-08-31T10:28:25;2.15;;;0.50;;
60016;SDS011;45869;52.698;6.210;2023-08-31T10:31:02;2.58;;;0.32;;
60016;SDS011;45869;52.698;6.210;2023-08-31T10:34:13;2.70;;;0.40;;
60016;SDS011;45869;52.698;6.210;2023-08-31T10:36:20;2.58;;;0.45;;
60016;SDS011;45869;52.698;6.210;2023-08-31T10:38:51;2.60;;;0.40;;
60016;SDS011;45869;52.698;6.210;2023-08-31T10:41:29;5.47;;;0.50;;
60016;SDS011;45869;52.698;6.210;2023-08-31T10:43:57;4.57;;;0.60;;
60016;SDS011;45869;52.698;6.210;2023-08-31T10:46:30;4.82;;;0.57;;
60016;SDS011;45869;52.698;6.210;2023-08-31T10:51:39;3.30;;;0.50;;
60016;SDS011;45869;52.698;6.210;2023-08-31T11:02:08;3.60;;;0.50;;
60016;SDS011;45869;52.698;6.210;2023-08-31T11:05:17;3.22;;;0.60;;
60016;SDS011;45869;52.698;6.210;2023-08-31T11:07:24;4.38;;;0.50;;
60016;SDS011;45869;52.698;6.210;2023-08-31T11:09:51;6.53;;;0.77;;
60016;SDS011;45869;52.698;6.210;2023-08-31T11:12:17;11.75;;;1.27;;
60016;SDS011;45869;52.698;6.210;2023-08-31T11:14:43;6.40;;;1.05;;
60016;SDS011;45869;52.698;6.210;2023-08-31T11:17:09;5.68;;;0.73;;
60016;SDS011;45869;52.698;6.210;2023-08-31T11:19:45;3.28;;;0.68;;
60016;SDS011;45869;52.698;6.210;2023-08-31T11:22:14;2.97;;;0.45;;
60016;SDS011;45869;52.698;6.210;2023-08-31T11:24:42;3.03;;;0.43;;
60016;SDS011;45869;52.698;6.210;2023-08-31T11:27:09;1.75;;;0.20;;
60016;SDS011;45869;52.698;6.210;2023-08-31T11:29:42;2.83;;;0.28;;
60016;SDS011;45869;52.698;6.210;2023-08-31T11:32:12;1.48;;;0.38;;
60016;SDS011;45869;52.698;6.210;2023-08-31T11:34:41;3.40;;;0.60;;
60016;SDS011;45869;52.698;6.210;2023-08-31T11:37:08;2.17;;;0.38;;
60016;SDS011;45869;52.698;6.210;2023-08-31T11:39:37;3.03;;;0.30;;
60016;SDS011;45869;52.698;6.210;2023-08-31T11:42:05;4.10;;;0.40;;
60016;SDS011;45869;52.698;6.210;2023-08-31T11:44:31;5.10;;;0.63;;
60016;SDS011;45869;52.698;6.210;2023-08-31T11:46:57;5.20;;;0.60;;
60016;SDS011;45869;52.698;6.210;2023-08-31T11:49:24;3.42;;;0.82;;
60016;SDS011;45869;52.698;6.210;2023-08-31T11:51:54;3.78;;;0.55;;
60016;SDS011;45869;52.698;6.210;2023-08-31T11:54:20;4.28;;;0.73;;
60016;SDS011;45869;52.698;6.210;2023-08-31T11:56:50;4.43;;;0.60;;
60016;SDS011;45869;52.698;6.210;2023-08-31T11:59:17;5.97;;;0.50;;
60016;SDS011;45869;52.698;6.210;2023-08-31T12:01:43;2.53;;;0.47;;
60016;SDS011;45869;52.698;6.210;2023-08-31T12:04:10;4.22;;;0.47;;
60016;SDS011;45869;52.698;6.210;2023-08-31T12:06:39;8.20;;;0.80;;
60016;SDS011;45869;52.698;6.210;2023-08-31T12:09:09;3.72;;;0.70;;
60016;SDS011;45869;52.698;6.210;2023-08-31T12:11:35;7.03;;;1.00;;
60016;SDS011;45869;52.698;6.210;2023-08-31T12:14:18;7.38;;;1.20;;
60016;SDS011;45869;52.698;6.210;2023-08-31T12:16:44;3.53;;;0.55;;
60016;SDS011;45869;52.698;6.210;2023-08-31T12:19:10;2.20;;;0.40;;
60016;SDS011;45869;52.698;6.210;2023-08-31T12:21:39;2.10;;;0.35;;
60016;SDS011;45869;52.698;6.210;2023-08-31T12:24:05;2.28;;;0.30;;
60016;SDS011;45869;52.698;6.210;2023-08-31T12:26:32;3.28;;;0.50;;
60016;SDS011;45869;52.698;6.210;2023-08-31T12:28:58;5.53;;;0.55;;
60016;SDS011;45869;52.698;6.210;2023-08-31T12:31:24;3.70;;;0.40;;
60016;SDS011;45869;52.698;6.210;2023-08-31T12:33:50;3.92;;;0.40;;
60016;SDS011;45869;52.698;6.210;2023-08-31T12:36:16;3.97;;;0.55;;
60016;SDS011;45869;52.698;6.210;2023-08-31T12:38:42;2.67;;;0.52;;
60016;SDS011;45869;52.698;6.210;2023-08-31T12:41:11;3.03;;;0.60;;
60016;SDS011;45869;52.698;6.210;2023-08-31T12:43:38;4.25;;;0.77;;
60016;SDS011;45869;52.698;6.210;2023-08-31T12:46:04;3.38;;;0.75;;
60016;SDS011;45869;52.698;6.210;2023-08-31T12:51:23;4.70;;;0.70;;
60016;SDS011;45869;52.698;6.210;2023-08-31T12:53:49;4.63;;;0.80;;
60016;SDS011;45869;52.698;6.210;2023-08-31T12:56:15;4.28;;;0.90;;
60016;SDS011;45869;52.698;6.210;2023-08-31T12:58:48;2.17;;;0.60;;
60016;SDS011;45869;52.698;6.210;2023-08-31T13:01:14;3.08;;;0.80;;
60016;SDS011;45869;52.698;6.210;2023-08-31T13:03:40;2.38;;;0.50;;
60016;SDS011;45869;52.698;6.210;2023-08-31T13:06:06;6.18;;;0.50;;
60016;SDS011;45869;52.698;6.210;2023-08-31T13:08:32;2.75;;;0.45;;
60016;SDS011;45869;52.698;6.210;2023-08-31T13:10:58;3.17;;;0.50;;
60016;SDS011;45869;52.698;6.210;2023-08-31T13:13:24;2.58;;;0.40;;
60016;SDS011;45869;52.698;6.210;2023-08-31T13:15:50;2.90;;;0.40;;
60016;SDS011;45869;52.698;6.210;2023-08-31T13:18:16;2.78;;;0.30;;
60016;SDS011;45869;52.698;6.210;2023-08-31T13:20:49;2.75;;;0.40;;
60016;SDS011;45869;52.698;6.210;2023-08-31T13:23:15;1.83;;;0.52;;
60016;SDS011;45869;52.698;6.210;2023-08-31T13:25:42;4.30;;;0.75;;
60016;SDS011;45869;52.698;6.210;2023-08-31T13:28:08;4.22;;;0.90;;
60016;SDS011;45869;52.698;6.210;2023-08-31T13:30:34;3.20;;;0.63;;
60016;SDS011;45869;52.698;6.210;2023-08-31T13:33:03;6.68;;;0.55;;
60016;SDS011;45869;52.698;6.210;2023-08-31T13:35:30;4.43;;;0.65;;
60016;SDS011;45869;52.698;6.210;2023-08-31T13:37:56;4.80;;;0.63;;
60016;SDS011;45869;52.698;6.210;2023-08-31T13:40:22;5.75;;;1.15;;
60016;SDS011;45869;52.698;6.210;2023-08-31T13:42:49;4.80;;;0.47;;
60016;SDS011;45869;52.698;6.210;2023-08-31T13:45:18;6.22;;;0.90;;
60016;SDS011;45869;52.698;6.210;2023-08-31T13:47:44;4.90;;;0.50;;
60016;SDS011;45869;52.698;6.210;2023-08-31T13:50:14;2.92;;;0.60;;
60016;SDS011;45869;52.698;6.210;2023-08-31T13:52:40;5.88;;;1.00;;
60016;SDS011;45869;52.698;6.210;2023-08-31T13:55:06;3.58;;;0.55;;
60016;SDS011;45869;52.698;6.210;2023-08-31T13:57:32;3.38;;;0.60;;
60016;SDS011;45869;52.698;6.210;2023-08-31T13:59:58;4.45;;;0.63;;
60016;SDS011;45869;52.698;6.210;2023-08-31T14:02:29;3.15;;;0.57;;
60016;SDS011;45869;52.698;6.210;2023-08-31T14:04:55;5.75;;;0.50;;
60016;SDS011;45869;52.698;6.210;2023-08-31T14:07:22;4.90;;;0.70;;
60016;SDS011;45869;52.698;6.210;2023-08-31T14:09:51;3.78;;;0.85;;
60016;SDS011;45869;52.698;6.210;2023-08-31T14:12:17;2.22;;;0.55;;
60016;SDS011;45869;52.698;6.210;2023-08-31T14:14:44;4.53;;;0.85;;
60016;SDS011;45869;52.698;6.210;2023-08-31T14:17:11;4.78;;;0.60;;
60016;SDS011;45869;52.698;6.210;2023-08-31T14:19:37;4.45;;;0.68;;
60016;SDS011;45869;52.698;6.210;2023-08-31T14:22:04;6.70;;;0.77;;
60016;SDS011;45869;52.698;6.210;2023-08-31T14:24:30;3.22;;;0.60;;
60016;SDS011;45869;52.698;6.210;2023-08-31T14:26:57;4.30;;;0.80;;
60016;SDS011;45869;52.698;6.210;2023-08-31T14:29:23;4.35;;;0.90;;
60016;SDS011;45869;52.698;6.210;2023-08-31T14:31:52;3.00;;;0.50;;
60016;SDS011;45869;52.698;6.210;2023-08-31T14:34:19;5.07;;;0.82;;
60016;SDS011;45869;52.698;6.210;2023-08-31T14:36:45;2.45;;;0.60;;
60016;SDS011;45869;52.698;6.210;2023-08-31T14:39:11;3.70;;;0.70;;
60016;SDS011;45869;52.698;6.210;2023-08-31T14:41:37;5.03;;;0.88;;
60016;SDS011;45869;52.698;6.210;2023-08-31T14:44:03;3.85;;;0.68;;
60016;SDS011;45869;52.698;6.210;2023-08-31T14:46:29;3.00;;;0.70;;
60016;SDS011;45869;52.698;6.210;2023-08-31T14:48:55;5.65;;;1.13;;
60016;SDS011;45869;52.698;6.210;2023-08-31T14:51:21;1.92;;;0.50;;
60016;SDS011;45869;52.698;6.210;2023-08-31T14:53:47;3.17;;;0.50;;
60016;SDS011;45869;52.698;6.210;2023-08-31T14:56:13;4.43;;;0.80;;
60016;SDS011;45869;52.698;6.210;2023-08-31T14:58:39;2.78;;;0.52;;
60016;SDS011;45869;52.698;6.210;2023-08-31T15:01:08;3.15;;;0.70;;
60016;SDS011;45869;52.698;6.210;2023-08-31T15:03:34;4.38;;;0.70;;
60016;SDS011;45869;52.698;6.210;2023-08-31T15:06:04;5.00;;;2.20;;
60016;SDS011;45869;52.698;6.210;2023-08-31T15:08:37;4.22;;;1.20;;
60016;SDS011;45869;52.698;6.210;2023-08-31T15:11:07;3.10;;;0.77;;